Aviation Digital Data Service (ADDS)

Output produced by METARs form (1809 UTC 14 August 2018)
found at http://www.aviationweather.gov/adds/metars/
 
FYWE 141600Z 32006KT CAVOK 26/M05 Q1024
TAF FYWE 141700Z 1418/1503 32006KT CAVOK 
     BECMG 1419/1421 19003KT
       
FYGF 141400Z 04003KT CAVOK 30/13 Q1023
TAF FYGF 141700Z 1418/1503 09004KT CAVOK
       
FYWH 141700Z VRB03KT CAVOK 21/M06 Q1024 NOSIG
TAF FYWH 141600Z 1418/1518 29008KT CAVOK 
     BECMG 1419/1421 23003KT 
     BECMG 1503/1505 35004KT 
     BECMG 1515/1517 17004KT
       
TAF FYKT 141600Z 1418/1518 00000KT CAVOK 
     BECMG 1510/1512 21007KT
       
TAF FYOA 141700Z 1418/1503 00000KT CAVOK 
     BECMG 1419/1421 13004KT
       
TAF FYRU 141700Z 1418/1503 00000KT CAVOK 
     BECMG 1419/1421 08005KT
       
TAF FYWB 141600Z 1418/1518 25010KT CAVOK 
     BECMG 1419/1421 20008KT 9999 BKN015 
     TEMPO 1423/1504 04004KT 0500 FG OVC005 
     BECMG 1505/1507 9999 NSW OVC010 
     BECMG 1509/1511 21011KT CAVOK